Time;durP1;ratioP1;P1;durP2;ratioP2;P2;SDS_P1;SDS_P2;PMS_P1;PMS_P2;Temp;Humidity;BMP_temperature;BMP_pressure;BME280_temperature;BME280_humidity;BME280_pressure;Samples;Min_cycle;Max_cycle;Signal;HPM_P1;HPM_P2
2023/01/31 00:03:32;;;;;;;23.50;6.20;;;;;;;4.51;100.00;98959.61;669703;1275;139187;-80
2023/01/31 00:18:37;;;;;;;24.10;6.80;;;;;;;4.67;100.00;98970.48;669260;1285;138498;-80
2023/01/31 00:33:44;;;;;;;18.50;4.80;;;;;;;4.66;100.00;98984.16;669005;1288;138136;-80
2023/01/31 00:48:47;;;;;;;16.70;4.90;;;;;;;4.68;100.00;99023.37;667185;1274;138822;-81
2023/01/31 01:03:51;;;;;;;14.20;4.10;;;;;;;4.71;100.00;99046.65;668659;1275;138808;-78
2023/01/31 01:18:55;;;;;;;18.30;4.60;;;;;;;4.73;100.00;99066.41;670562;1272;138717;-79
2023/01/31 01:34:01;;;;;;;16.70;3.80;;;;;;;4.72;99.99;99096.44;667938;1274;138786;-79
2023/01/31 01:49:19;;;;;;;12.90;4.20;;;;;;;4.66;99.75;99123.65;668884;1271;139040;-79
2023/01/31 02:04:36;;;;;;;11.60;2.60;;;;;;;4.58;99.24;99134.88;668104;1275;138968;-80
2023/01/31 02:19:52;;;;;;;17.30;4.90;;;;;;;4.61;98.85;99155.94;670110;1272;139358;-79
2023/01/31 02:35:09;;;;;;;14.00;3.40;;;;;;;4.74;97.64;99178.09;671524;1272;138921;-79
2023/01/31 02:50:39;;;;;;;14.60;3.60;;;;;;;4.88;96.89;99209.66;668727;1269;138344;-80
2023/01/31 03:05:43;;;;;;;10.60;2.70;;;;;;;4.99;95.22;99227.00;671172;1269;139412;-79
2023/01/31 03:21:11;;;;;;;11.30;2.80;;;;;;;4.96;94.07;99247.96;669506;1272;139099;-79
2023/01/31 03:36:19;;;;;;;9.90;3.10;;;;;;;5.06;93.13;99278.91;670612;1269;139715;-79
2023/01/31 03:51:29;;;;;;;11.50;3.10;;;;;;;5.11;91.70;99301.77;674397;1269;138580;-80
2023/01/31 04:06:34;;;;;;;24.50;12.40;;;;;;;5.06;90.70;99329.21;672722;1274;138429;-80
2023/01/31 04:21:37;;;;;;;58.50;14.90;;;;;;;5.07;89.67;99342.77;672979;1270;139631;-79
2023/01/31 04:36:41;;;;;;;162.60;34.70;;;;;;;5.10;88.74;99348.13;675197;1277;138974;-80
2023/01/31 04:51:44;;;;;;;176.70;46.80;;;;;;;5.04;87.90;99366.90;672376;1266;138661;-81
2023/01/31 05:06:47;;;;;;;92.90;19.10;;;;;;;5.00;88.08;99397.38;671786;1271;139593;-79
2023/01/31 05:21:53;;;;;;;63.20;16.40;;;;;;;4.96;87.50;99425.84;674102;1269;140593;-79
2023/01/31 05:36:57;;;;;;;44.80;11.60;;;;;;;4.94;87.03;99458.17;673259;1269;139681;-80
2023/01/31 05:52:01;;;;;;;11.40;3.30;;;;;;;4.95;86.52;99472.31;673503;1272;139284;-81
2023/01/31 06:07:05;;;;;;;62.10;31.20;;;;;;;4.98;86.32;99495.81;674791;1269;138065;-80
2023/01/31 06:22:08;;;;;;;17.60;5.60;;;;;;;4.97;85.73;99516.70;673908;1266;138854;-79
2023/01/31 06:37:11;;;;;;;28.50;11.80;;;;;;;4.89;84.31;99545.72;672820;1265;138473;-80
2023/01/31 06:52:14;;;;;;;15.20;4.80;;;;;;;4.91;84.05;99571.23;674897;1269;139017;-80
2023/01/31 07:07:18;;;;;;;28.60;10.00;;;;;;;4.91;83.58;99600.40;674202;1266;138350;-81
2023/01/31 07:22:21;;;;;;;39.00;10.10;;;;;;;4.86;84.54;99624.11;673485;1265;138229;-81
2023/01/31 07:37:24;;;;;;;34.30;13.20;;;;;;;4.78;84.49;99632.46;673336;1265;138772;-80
2023/01/31 07:52:28;;;;;;;11.40;4.10;;;;;;;4.76;84.32;99644.98;675154;1266;139183;-81
2023/01/31 08:07:31;;;;;;;22.90;7.30;;;;;;;4.86;83.18;99664.15;673087;1266;138604;-80
2023/01/31 08:22:34;;;;;;;16.80;5.30;;;;;;;4.86;83.69;99682.10;670496;1267;138525;-80
2023/01/31 08:37:38;;;;;;;25.10;7.90;;;;;;;5.07;83.18;99699.47;671975;1265;138471;-81
2023/01/31 08:52:41;;;;;;;19.00;7.90;;;;;;;5.13;82.76;99719.33;676275;1264;140084;-79
2023/01/31 09:07:44;;;;;;;30.20;12.60;;;;;;;5.21;81.83;99722.23;674423;1265;138558;-81
2023/01/31 09:22:47;;;;;;;36.90;13.20;;;;;;;5.47;81.40;99730.73;673775;1267;139712;-79
2023/01/31 09:37:50;;;;;;;31.10;12.40;;;;;;;5.63;80.34;99742.13;674400;1266;138576;-79
2023/01/31 09:52:54;;;;;;;31.10;10.40;;;;;;;5.99;79.39;99754.18;671082;1260;138831;-81
2023/01/31 10:08:29;;;;;;;30.60;10.50;;;;;;;6.52;79.00;99745.14;672298;1264;138753;-78
2023/01/31 10:23:56;;;;;;;28.30;8.90;;;;;;;6.72;76.46;99759.98;672131;1277;139754;-81
2023/01/31 10:39:05;;;;;;;29.70;9.50;;;;;;;6.83;74.37;99754.57;673485;1267;139442;-79
2023/01/31 10:54:41;;;;;;;51.70;24.10;;;;;;;7.14;73.70;99746.52;672161;1265;139692;-81
2023/01/31 11:09:50;;;;;;;19.30;4.60;;;;;;;7.81;70.33;99735.46;672667;1267;138805;-82
2023/01/31 11:24:56;;;;;;;14.60;4.80;;;;;;;8.06;68.21;99726.77;673176;1278;139655;-80
2023/01/31 11:40:02;;;;;;;42.50;17.40;;;;;;;7.56;67.94;99722.33;672036;1261;139124;-81
2023/01/31 11:55:08;;;;;;;16.20;7.80;;;;;;;8.65;65.50;99709.25;676432;1260;138538;-80
2023/01/31 12:10:41;;;;;;;18.80;6.50;;;;;;;7.80;65.28;99681.22;674091;1260;139171;-80
2023/01/31 12:25:45;;;;;;;19.40;7.10;;;;;;;7.29;65.67;99677.42;673436;1262;139743;-80
2023/01/31 12:41:20;;;;;;;19.90;7.50;;;;;;;7.08;65.42;99670.48;676306;1261;138595;-80
2023/01/31 12:56:48;;;;;;;24.70;7.60;;;;;;;6.76;65.30;99649.77;675197;1262;139368;-80
2023/01/31 13:12:02;;;;;;;19.20;9.00;;;;;;;6.59;66.22;99638.84;676207;1265;139627;-80
2023/01/31 13:27:29;;;;;;;10.60;4.80;;;;;;;6.56;67.79;99643.43;674403;1265;139487;-80
2023/01/31 13:42:33;;;;;;;20.50;9.20;;;;;;;6.33;68.58;99638.47;673051;1262;138584;-81
2023/01/31 13:57:46;;;;;;;10.40;5.10;;;;;;;6.24;68.83;99618.91;673341;1265;138855;-81
2023/01/31 14:13:39;;;;;;;56.20;24.20;;;;;;;6.01;69.78;99602.15;674461;1264;138766;-80
2023/01/31 14:28:42;;;;;;;22.90;6.30;;;;;;;5.81;69.65;99608.87;672269;1262;138170;-81
2023/01/31 14:44:23;;;;;;;17.80;5.60;;;;;;;5.71;70.18;99605.50;673924;1263;138651;-82
2023/01/31 14:59:44;;;;;;;48.30;14.50;;;;;;;5.49;70.03;99575.79;674522;1262;138929;-82
2023/01/31 15:14:48;;;;;;;38.00;11.70;;;;;;;5.36;70.28;99570.55;674374;1265;138691;-81
2023/01/31 15:30:08;;;;;;;37.10;18.60;;;;;;;5.22;71.35;99565.95;678292;1262;139646;-81
2023/01/31 15:45:20;;;;;;;28.40;11.40;;;;;;;5.03;72.87;99556.31;672085;1265;138586;-81
2023/01/31 16:00:30;;;;;;;27.80;11.50;;;;;;;4.98;74.55;99535.70;674360;1275;138700;-82
2023/01/31 16:15:33;;;;;;;25.20;10.30;;;;;;;4.99;74.74;99521.23;672205;1265;138992;-82
2023/01/31 16:30:39;;;;;;;98.00;33.30;;;;;;;4.99;76.57;99515.33;674440;1265;139056;-81
2023/01/31 16:45:59;;;;;;;20.50;7.90;;;;;;;5.01;77.52;99506.34;678612;1262;138726;-82
2023/01/31 17:01:15;;;;;;;43.00;13.70;;;;;;;4.82;80.67;99478.17;675144;1265;139145;-83
2023/01/31 17:16:24;;;;;;;33.10;13.50;;;;;;;4.72;82.19;99445.14;677715;1261;140756;-82
2023/01/31 17:31:28;;;;;;;39.10;14.90;;;;;;;4.58;85.47;99412.96;678966;1262;138511;-80
2023/01/31 17:46:32;;;;;;;23.70;11.00;;;;;;;4.56;86.39;99369.02;676082;1262;139234;-81
2023/01/31 18:01:35;;;;;;;23.90;8.10;;;;;;;4.55;88.61;99346.88;672625;1265;138944;-80
2023/01/31 18:16:39;;;;;;;32.00;9.70;;;;;;;4.57;90.12;99296.11;672537;1265;138852;-80
2023/01/31 18:31:43;;;;;;;18.00;8.80;;;;;;;4.47;92.52;99250.15;672197;1265;138306;-81
2023/01/31 18:46:46;;;;;;;25.50;10.40;;;;;;;4.40;95.54;99229.09;672058;1265;138411;-81
2023/01/31 19:01:51;;;;;;;19.60;9.10;;;;;;;4.32;97.38;99190.60;672008;1267;139023;-81
2023/01/31 19:16:56;;;;;;;17.10;9.50;;;;;;;4.37;99.18;99159.55;672204;1265;138386;-82
2023/01/31 19:32:02;;;;;;;24.60;12.90;;;;;;;4.51;99.57;99118.58;670942;1265;138545;-80
2023/01/31 19:47:07;;;;;;;22.60;12.40;;;;;;;4.36;100.00;99078.95;672382;1265;138564;-82
2023/01/31 20:02:11;;;;;;;18.10;10.30;;;;;;;4.19;100.00;99037.06;674080;1266;139122;-84
2023/01/31 20:17:15;;;;;;;22.40;13.10;;;;;;;4.07;100.00;99004.11;674953;1276;140195;-82
2023/01/31 20:32:18;;;;;;;43.80;17.40;;;;;;;4.24;100.00;98984.71;675437;1263;138730;-82
2023/01/31 20:47:21;;;;;;;25.90;12.70;;;;;;;4.50;100.00;98958.90;676974;1265;139154;-81
2023/01/31 21:02:25;;;;;;;65.10;24.80;;;;;;;4.78;100.00;98936.98;674749;1263;139317;-81
2023/01/31 21:17:28;;;;;;;32.10;15.50;;;;;;;5.05;100.00;98909.04;675714;1262;139326;-80
2023/01/31 21:32:45;;;;;;;55.00;16.90;;;;;;;5.21;100.00;98892.17;673554;1265;138621;-81
2023/01/31 22:03:11;;;;;;;37.80;12.90;;;;;;;5.62;100.00;98854.35;673330;1264;138588;-82
2023/01/31 22:18:14;;;;;;;10.90;5.70;;;;;;;5.56;100.00;98856.55;672021;1265;138844;-82
2023/01/31 22:33:18;;;;;;;7.30;2.90;;;;;;;5.15;100.00;98865.32;674449;1264;138959;-80
2023/01/31 22:48:23;;;;;;;5.90;2.90;;;;;;;4.92;100.00;98846.35;675212;1266;158932;-82
2023/01/31 23:03:27;;;;;;;53.30;15.80;;;;;;;4.81;100.00;98855.48;675604;1266;140075;-81
2023/01/31 23:18:35;;;;;;;6.80;2.40;;;;;;;4.63;100.00;98865.70;674977;1265;138883;-81
2023/01/31 23:33:39;;;;;;;7.10;2.20;;;;;;;4.64;100.00;98872.36;672062;1261;138898;-80
2023/01/31 23:48:49;;;;;;;7.80;3.10;;;;;;;4.58;100.00;98872.66;672790;1269;138975;-82
